Time;durP1;ratioP1;P1;durP2;ratioP2;P2;SDS_P1;SDS_P2;PMS_P1;PMS_P2;Temp;Humidity;BMP_temperature;BMP_pressure;BME280_temperature;BME280_humidity;BME280_pressure;Samples;Min_cycle;Max_cycle;Signal;HPM_P1;HPM_P2
2023/07/24 00:02:09;;;;;;;2.28;2.10;;;20.90;99.90;;;;;;5070718;28;20588;-60
2023/07/24 00:04:37;;;;;;;3.10;2.13;;;20.90;99.90;;;;;;5069027;28;20248;-60
2023/07/24 00:07:05;;;;;;;1.92;1.83;;;20.90;99.90;;;;;;5071558;28;20619;-60
2023/07/24 00:09:33;;;;;;;3.05;1.67;;;20.90;99.90;;;;;;5070189;28;20228;-60
2023/07/24 00:12:01;;;;;;;3.20;1.67;;;20.80;99.90;;;;;;5071319;28;20608;-60
2023/07/24 00:14:30;;;;;;;3.03;2.45;;;20.80;99.90;;;;;;5071339;28;20285;-60
2023/07/24 00:16:58;;;;;;;4.20;2.08;;;20.80;99.90;;;;;;5071426;28;20224;-60
2023/07/24 00:19:26;;;;;;;2.45;2.13;;;20.70;99.90;;;;;;5069759;28;20205;-60
2023/07/24 00:21:54;;;;;;;2.63;2.42;;;20.70;99.90;;;;;;5071210;28;20315;-60
2023/07/24 00:24:22;;;;;;;2.22;2.10;;;20.70;99.90;;;;;;5070403;28;20786;-61
2023/07/24 00:26:50;;;;;;;2.35;2.20;;;20.70;99.90;;;;;;5069819;28;20592;-60
2023/07/24 00:29:18;;;;;;;2.65;1.75;;;20.70;99.90;;;;;;5070804;28;20665;-60
2023/07/24 00:31:47;;;;;;;3.22;1.90;;;20.70;99.90;;;;;;5071427;28;20227;-60
2023/07/24 00:34:15;;;;;;;2.58;1.85;;;20.60;99.90;;;;;;5069512;28;20674;-60
2023/07/24 00:36:43;;;;;;;2.25;1.77;;;20.60;99.90;;;;;;5070659;28;20209;-60
2023/07/24 00:39:11;;;;;;;2.45;1.90;;;20.60;99.90;;;;;;5070123;28;20212;-61
2023/07/24 00:41:39;;;;;;;5.53;2.05;;;20.60;99.90;;;;;;5067471;28;20256;-60
2023/07/24 00:44:07;;;;;;;2.75;2.17;;;20.60;99.90;;;;;;5070523;28;20204;-60
2023/07/24 00:46:35;;;;;;;5.03;2.20;;;20.60;99.90;;;;;;5070142;28;20704;-60
2023/07/24 00:49:05;;;;;;;2.30;2.10;;;20.60;99.90;;;;;;5070849;28;20639;-60
2023/07/24 00:51:34;;;;;;;3.35;2.03;;;20.60;99.90;;;;;;5070667;28;20283;-60
2023/07/24 00:54:02;;;;;;;4.78;2.25;;;20.60;99.90;;;;;;5071028;28;20650;-60
2023/07/24 00:56:30;;;;;;;7.05;2.13;;;20.60;99.90;;;;;;5070701;28;20213;-60
2023/07/24 00:58:59;;;;;;;2.22;2.13;;;20.60;99.90;;;;;;5069449;28;20211;-61
2023/07/24 01:01:27;;;;;;;2.90;2.00;;;20.60;99.90;;;;;;5069532;28;20227;-61
2023/07/24 01:03:55;;;;;;;4.72;2.13;;;20.60;99.90;;;;;;5070584;28;20193;-60
2023/07/24 01:06:24;;;;;;;2.53;2.20;;;20.60;99.90;;;;;;5070640;28;20233;-60
2023/07/24 01:08:52;;;;;;;2.38;2.00;;;20.50;99.90;;;;;;5070771;28;20239;-60
2023/07/24 01:11:21;;;;;;;1.85;1.75;;;20.50;99.90;;;;;;5070964;28;20204;-60
2023/07/24 01:13:52;;;;;;;10.48;1.77;;;20.50;99.90;;;;;;5070380;28;20232;-60
2023/07/24 01:16:20;;;;;;;2.97;1.73;;;20.50;99.90;;;;;;5069576;28;20256;-60
2023/07/24 01:18:48;;;;;;;4.50;1.85;;;20.50;99.90;;;;;;5069942;28;20545;-60
2023/07/24 01:21:16;;;;;;;1.77;1.67;;;20.40;99.90;;;;;;5070419;28;20311;-60
2023/07/24 01:23:56;;;;;;;3.35;2.03;;;20.40;99.90;;;;;;5070818;28;20205;-60
2023/07/24 01:26:25;;;;;;;2.60;1.98;;;20.40;99.90;;;;;;5070498;28;20228;-60
2023/07/24 01:28:53;;;;;;;2.63;2.42;;;20.40;99.90;;;;;;5066216;28;20196;-60
2023/07/24 01:31:21;;;;;;;2.45;2.25;;;20.40;99.90;;;;;;5070394;28;20308;-61
2023/07/24 01:33:49;;;;;;;2.30;1.90;;;20.40;99.90;;;;;;5069162;28;20223;-60
2023/07/24 01:36:17;;;;;;;3.53;1.85;;;20.40;99.90;;;;;;5073962;28;20324;-60
2023/07/24 01:38:45;;;;;;;2.33;2.08;;;20.40;99.90;;;;;;5074404;28;20466;-60
2023/07/24 01:41:13;;;;;;;2.35;1.80;;;20.40;99.90;;;;;;5074554;28;20221;-60
2023/07/24 01:43:42;;;;;;;1.63;1.60;;;20.30;99.90;;;;;;5073666;28;20625;-60
2023/07/24 01:46:10;;;;;;;2.75;1.98;;;20.30;99.90;;;;;;5073791;28;20342;-60
2023/07/24 01:48:38;;;;;;;5.15;1.80;;;20.30;99.90;;;;;;5073729;28;20197;-60
2023/07/24 01:51:06;;;;;;;3.08;2.17;;;20.30;99.90;;;;;;5072544;28;20276;-60
2023/07/24 01:53:34;;;;;;;3.50;2.25;;;20.30;99.90;;;;;;5073908;28;20204;-60
2023/07/24 01:56:02;;;;;;;2.30;2.20;;;20.30;99.90;;;;;;5072707;28;20224;-61
2023/07/24 01:58:30;;;;;;;3.25;2.42;;;20.30;99.90;;;;;;5072958;28;20655;-60
2023/07/24 02:00:59;;;;;;;2.30;2.10;;;20.30;99.90;;;;;;5073363;28;20205;-60
2023/07/24 02:03:27;;;;;;;3.10;2.80;;;20.30;99.90;;;;;;5074097;28;20279;-60
2023/07/24 02:05:55;;;;;;;2.65;2.45;;;20.30;99.90;;;;;;5073800;28;20220;-60
2023/07/24 02:08:23;;;;;;;3.40;2.67;;;20.30;99.90;;;;;;5072983;28;20205;-60
2023/07/24 02:10:52;;;;;;;2.30;2.20;;;20.30;99.90;;;;;;5072492;28;20619;-61
2023/07/24 02:13:19;;;;;;;3.90;2.70;;;20.30;99.90;;;;;;5073683;28;20233;-60
2023/07/24 02:15:47;;;;;;;4.30;2.92;;;20.30;99.90;;;;;;5073504;28;20225;-60
2023/07/24 02:18:17;;;;;;;3.63;2.65;;;20.30;99.90;;;;;;5072222;28;20927;-60
2023/07/24 02:20:50;;;;;;;3.85;2.88;;;20.20;99.90;;;;;;5073375;28;20292;-60
2023/07/24 02:23:17;;;;;;;2.75;2.55;;;20.20;99.90;;;;;;5072945;28;20220;-60
2023/07/24 02:25:45;;;;;;;4.55;2.90;;;20.10;99.90;;;;;;5073046;28;20228;-60
2023/07/24 02:28:13;;;;;;;2.72;2.53;;;20.10;99.90;;;;;;5072758;28;20370;-60
2023/07/24 02:30:41;;;;;;;4.13;2.88;;;20.10;99.90;;;;;;5073391;28;20200;-61
2023/07/24 02:33:09;;;;;;;5.70;2.97;;;20.00;99.90;;;;;;5073483;28;20228;-60
2023/07/24 02:35:40;;;;;;;6.50;3.13;;;20.00;99.90;;;;;;5070904;22;20790;-58
2023/07/24 02:38:08;;;;;;;5.03;3.15;;;19.90;99.90;;;;;;5054263;28;20229;-59
2023/07/24 02:40:36;;;;;;;3.55;2.85;;;19.80;99.90;;;;;;5044982;28;20200;-60
2023/07/24 02:43:04;;;;;;;7.82;2.83;;;19.80;99.90;;;;;;5053444;28;20239;-61
2023/07/24 02:45:34;;;;;;;5.50;3.15;;;19.80;99.90;;;;;;5052607;28;20261;-55
2023/07/24 02:48:03;;;;;;;3.95;3.63;;;19.70;99.90;;;;;;5052107;28;20293;-60
2023/07/24 02:50:31;;;;;;;3.85;3.38;;;19.70;99.90;;;;;;5050419;28;20206;-60
2023/07/24 02:53:02;;;;;;;4.28;3.75;;;19.60;99.90;;;;;;5051541;28;20276;-56
2023/07/24 02:55:30;;;;;;;6.57;3.38;;;19.50;99.90;;;;;;5052790;28;20228;-56
2023/07/24 02:57:57;;;;;;;3.50;3.08;;;19.50;99.90;;;;;;5050916;28;20209;-56
2023/07/24 03:00:25;;;;;;;3.85;3.53;;;19.50;99.90;;;;;;5051310;28;20229;-57
2023/07/24 03:02:53;;;;;;;6.80;4.10;;;19.40;99.90;;;;;;5048970;28;20313;-58
2023/07/24 03:05:21;;;;;;;4.90;4.45;;;19.40;99.90;;;;;;5049991;28;20226;-64
2023/07/24 03:07:49;;;;;;;4.22;3.78;;;19.30;99.90;;;;;;5052150;28;20197;-65
2023/07/24 03:10:19;;;;;;;6.32;4.03;;;19.30;99.90;;;;;;5050367;28;20237;-59
2023/07/24 03:12:47;;;;;;;6.50;3.92;;;19.30;99.90;;;;;;5052656;28;20259;-56
2023/07/24 03:15:15;;;;;;;4.22;3.83;;;19.30;99.90;;;;;;5052036;28;20252;-58
2023/07/24 03:17:44;;;;;;;5.80;3.88;;;19.30;99.90;;;;;;5053444;28;20665;-55
2023/07/24 03:20:14;;;;;;;5.75;4.05;;;19.30;99.90;;;;;;5049951;28;20259;-63
2023/07/24 03:22:42;;;;;;;6.85;4.30;;;19.30;99.90;;;;;;5052354;28;20303;-58
2023/07/24 03:25:10;;;;;;;6.32;4.35;;;19.30;99.90;;;;;;5051923;28;20781;-60
2023/07/24 03:27:39;;;;;;;4.47;4.07;;;19.30;99.90;;;;;;5052247;28;20202;-60
2023/07/24 03:30:08;;;;;;;4.45;4.05;;;19.30;99.90;;;;;;5049073;28;20237;-56
2023/07/24 03:32:37;;;;;;;4.35;3.95;;;19.30;99.90;;;;;;5051197;28;20279;-60
2023/07/24 03:35:05;;;;;;;5.68;4.50;;;19.20;99.90;;;;;;5051666;28;20225;-56
2023/07/24 03:37:35;;;;;;;10.63;4.28;;;19.20;99.90;;;;;;5051982;28;20205;-55
2023/07/24 03:40:03;;;;;;;6.65;4.60;;;19.10;99.90;;;;;;5048231;28;20259;-58
2023/07/24 03:42:31;;;;;;;4.20;3.80;;;19.10;99.90;;;;;;5051493;28;20308;-56
2023/07/24 03:45:01;;;;;;;5.40;4.32;;;19.10;99.90;;;;;;5051846;28;20252;-56
2023/07/24 03:47:29;;;;;;;5.43;4.70;;;19.00;99.90;;;;;;5047221;28;20244;-58
2023/07/24 03:49:57;;;;;;;6.60;4.00;;;19.00;99.90;;;;;;5048959;28;20204;-61
2023/07/24 03:52:24;;;;;;;4.82;4.35;;;19.00;99.90;;;;;;5048461;28;20260;-60
2023/07/24 03:54:52;;;;;;;6.70;4.63;;;19.00;99.90;;;;;;5050641;28;20245;-56
2023/07/24 03:57:20;;;;;;;5.57;4.07;;;19.00;99.90;;;;;;5050258;28;20237;-57
2023/07/24 03:59:48;;;;;;;4.65;4.22;;;18.90;99.90;;;;;;5051396;28;20209;-56
2023/07/24 04:02:17;;;;;;;5.45;4.13;;;18.80;99.90;;;;;;5050753;28;20261;-57
2023/07/24 04:04:45;;;;;;;4.13;3.75;;;18.80;99.90;;;;;;5047959;28;20308;-57
2023/07/24 04:07:13;;;;;;;7.25;4.43;;;18.80;99.90;;;;;;5050134;28;20292;-59
2023/07/24 04:09:41;;;;;;;5.65;4.72;;;18.80;99.90;;;;;;5051403;28;20642;-60
2023/07/24 04:12:09;;;;;;;4.93;4.30;;;18.80;99.90;;;;;;5042908;28;20256;-55
2023/07/24 04:14:37;;;;;;;6.72;4.57;;;18.90;99.90;;;;;;5048749;28;20244;-55
2023/07/24 04:17:05;;;;;;;7.35;4.45;;;18.90;99.90;;;;;;5048960;28;20263;-56
2023/07/24 04:19:36;;;;;;;5.15;4.65;;;18.90;99.90;;;;;;5049428;28;20205;-56
2023/07/24 04:22:04;;;;;;;5.97;4.80;;;18.90;99.90;;;;;;5050927;28;20240;-58
2023/07/24 04:24:32;;;;;;;5.28;4.78;;;18.90;99.90;;;;;;5050212;28;20546;-56
2023/07/24 04:27:00;;;;;;;5.30;4.80;;;18.90;99.90;;;;;;5049733;28;20263;-60
2023/07/24 04:29:28;;;;;;;5.03;4.53;;;19.00;99.90;;;;;;5048874;28;20620;-58
2023/07/24 04:31:56;;;;;;;2.83;2.40;;;19.00;99.90;;;;;;5051168;28;20240;-61
2023/07/24 04:34:24;;;;;;;2.45;2.35;;;19.10;99.90;;;;;;5050916;28;20280;-60
2023/07/24 04:36:53;;;;;;;9.02;3.78;;;19.40;99.90;;;;;;5046477;28;20237;-59
2023/07/24 04:39:21;;;;;;;4.13;3.70;;;19.70;99.90;;;;;;5042605;28;20201;-59
2023/07/24 04:41:49;;;;;;;4.53;3.92;;;20.00;99.90;;;;;;5047781;28;20209;-58
2023/07/24 04:44:17;;;;;;;11.00;4.40;;;20.10;99.90;;;;;;5048569;28;20310;-59
2023/07/24 04:46:45;;;;;;;4.60;4.20;;;20.30;99.90;;;;;;5048075;28;20284;-59
2023/07/24 04:49:13;;;;;;;5.68;4.28;;;20.40;99.90;;;;;;5047272;28;20205;-59
2023/07/24 04:51:40;;;;;;;8.73;5.00;;;20.50;99.90;;;;;;5051401;28;20229;-60
2023/07/24 04:54:10;;;;;;;8.65;5.20;;;20.60;99.90;;;;;;5051219;28;20194;-62
2023/07/24 04:56:38;;;;;;;8.23;4.72;;;20.60;99.90;;;;;;5050125;28;20261;-59
2023/07/24 04:59:06;;;;;;;6.88;5.20;;;20.70;99.90;;;;;;5042711;28;20251;-59
2023/07/24 05:01:34;;;;;;;6.38;5.00;;;20.70;99.90;;;;;;5050385;28;20202;-57
2023/07/24 05:04:02;;;;;;;5.43;4.93;;;20.70;99.90;;;;;;5050136;28;20692;-62
2023/07/24 05:06:30;;;;;;;7.50;5.28;;;20.70;99.90;;;;;;5048271;28;20708;-62
2023/07/24 05:08:58;;;;;;;6.13;5.53;;;20.80;99.90;;;;;;5042380;28;20198;-62
2023/07/24 05:11:27;;;;;;;5.93;5.32;;;20.80;99.90;;;;;;5054501;28;20206;-62
2023/07/24 05:13:55;;;;;;;10.77;5.47;;;20.80;99.90;;;;;;5052235;28;20201;-62
2023/07/24 05:16:23;;;;;;;9.27;5.82;;;20.90;99.90;;;;;;5051952;28;20242;-59
2023/07/24 05:18:51;;;;;;;8.55;5.80;;;20.90;99.90;;;;;;5048856;28;20697;-59
2023/07/24 05:21:19;;;;;;;6.50;5.43;;;20.90;99.90;;;;;;5053944;28;20229;-59
2023/07/24 05:23:47;;;;;;;10.18;5.85;;;20.90;99.90;;;;;;5054640;28;20326;-59
2023/07/24 05:26:15;;;;;;;6.93;5.85;;;20.80;99.90;;;;;;5048463;28;20280;-59
2023/07/24 05:28:44;;;;;;;7.32;5.90;;;20.70;99.90;;;;;;5052492;28;20743;-59
2023/07/24 05:31:12;;;;;;;6.97;5.70;;;20.70;99.90;;;;;;5054692;28;20280;-58
2023/07/24 05:33:40;;;;;;;6.45;5.00;;;20.70;99.90;;;;;;5054560;28;20708;-57
2023/07/24 05:36:07;;;;;;;10.30;5.90;;;20.80;99.90;;;;;;5053930;28;20288;-58
2023/07/24 05:38:35;;;;;;;6.80;4.78;;;20.90;99.90;;;;;;5049436;28;20649;-57
2023/07/24 05:41:04;;;;;;;6.68;5.72;;;20.90;99.90;;;;;;5054011;28;20247;-58
2023/07/24 05:43:32;;;;;;;6.55;5.95;;;21.00;99.90;;;;;;5053682;28;20229;-58
2023/07/24 05:46:01;;;;;;;9.18;6.03;;;20.90;99.90;;;;;;5051090;28;20217;-59
2023/07/24 05:48:29;;;;;;;9.10;6.47;;;20.80;99.90;;;;;;5054072;28;20205;-58
2023/07/24 05:50:57;;;;;;;7.60;5.82;;;20.70;99.90;;;;;;5052938;28;20209;-58
2023/07/24 05:53:25;;;;;;;8.32;6.25;;;20.70;99.90;;;;;;5054316;28;20278;-57
2023/07/24 05:56:00;;;;;;;11.57;6.00;;;20.70;99.90;;;;;;5052982;28;20227;-57
2023/07/24 05:58:28;;;;;;;11.07;6.13;;;20.70;99.90;;;;;;5047597;28;20258;-58
2023/07/24 06:00:56;;;;;;;8.68;6.90;;;20.70;99.90;;;;;;5053039;28;20212;-58
2023/07/24 06:03:25;;;;;;;8.13;6.43;;;20.80;99.90;;;;;;5050452;28;20332;-57
2023/07/24 06:05:54;;;;;;;8.43;6.22;;;20.70;99.90;;;;;;5052183;28;20260;-58
2023/07/24 06:08:22;;;;;;;8.63;6.10;;;20.70;99.90;;;;;;5053422;28;20801;-56
2023/07/24 06:10:50;;;;;;;6.60;5.85;;;20.80;99.90;;;;;;5052428;28;20197;-58
2023/07/24 06:13:18;;;;;;;7.15;6.05;;;20.80;99.90;;;;;;5051847;28;20255;-58
2023/07/24 06:15:47;;;;;;;7.78;5.43;;;20.80;99.90;;;;;;5053040;28;20217;-58
2023/07/24 06:18:16;;;;;;;8.80;5.38;;;20.90;99.90;;;;;;5050326;28;20673;-57
2023/07/24 06:20:45;;;;;;;9.32;5.38;;;21.00;99.90;;;;;;5051846;28;20210;-56
2023/07/24 06:23:13;;;;;;;7.28;5.10;;;21.10;99.90;;;;;;5050168;28;20232;-57
2023/07/24 06:25:41;;;;;;;6.85;5.13;;;21.10;99.90;;;;;;5053124;28;20945;-57
2023/07/24 06:28:09;;;;;;;5.57;4.95;;;21.20;99.90;;;;;;5052067;28;20285;-58
2023/07/24 06:30:37;;;;;;;6.60;4.45;;;21.20;99.90;;;;;;5050536;28;20209;-58
2023/07/24 06:33:05;;;;;;;5.38;4.85;;;21.40;99.90;;;;;;5052369;28;20293;-56
2023/07/24 06:35:33;;;;;;;6.15;4.32;;;21.40;99.90;;;;;;5049219;28;20241;-56
2023/07/24 06:38:02;;;;;;;5.22;4.63;;;21.50;99.90;;;;;;5048003;28;20205;-56
2023/07/24 06:40:30;;;;;;;5.03;4.32;;;21.60;99.90;;;;;;5050984;28;20201;-56
2023/07/24 06:42:58;;;;;;;6.35;4.38;;;21.60;99.90;;;;;;5050405;28;20201;-58
2023/07/24 06:45:25;;;;;;;6.47;4.25;;;21.50;99.90;;;;;;5051964;28;20760;-58
2023/07/24 06:47:54;;;;;;;6.80;4.25;;;21.50;99.90;;;;;;5052261;28;20263;-58
2023/07/24 06:50:22;;;;;;;5.47;3.95;;;21.40;99.90;;;;;;5052357;28;20217;-58
2023/07/24 06:52:51;;;;;;;6.43;3.88;;;21.40;99.90;;;;;;5052992;28;20225;-57
2023/07/24 06:55:20;;;;;;;3.72;3.42;;;21.50;99.90;;;;;;5052635;28;20252;-58
2023/07/24 06:57:48;;;;;;;4.65;4.03;;;21.50;99.90;;;;;;5050782;28;20268;-57
2023/07/24 07:00:17;;;;;;;6.97;3.78;;;21.50;99.90;;;;;;5049401;28;20201;-57
2023/07/24 07:02:45;;;;;;;5.07;3.60;;;21.50;99.90;;;;;;5052320;28;20201;-57
2023/07/24 07:05:12;;;;;;;6.38;3.75;;;21.60;99.90;;;;;;5052420;28;20233;-57
2023/07/24 07:07:40;;;;;;;5.07;3.55;;;21.60;99.90;;;;;;5051522;28;20229;-58
2023/07/24 07:10:09;;;;;;;4.55;3.13;;;21.70;99.90;;;;;;5049813;28;20216;-57
2023/07/24 07:12:38;;;;;;;3.22;2.95;;;21.80;99.90;;;;;;5048893;28;20205;-57
2023/07/24 07:15:07;;;;;;;4.53;3.33;;;21.90;99.90;;;;;;5049478;28;20229;-58
2023/07/24 07:17:35;;;;;;;3.72;3.40;;;22.00;99.90;;;;;;5051626;28;20289;-57
2023/07/24 07:20:04;;;;;;;3.80;3.47;;;22.00;99.90;;;;;;5045750;28;20212;-57
2023/07/24 07:22:32;;;;;;;5.10;3.38;;;22.10;99.90;;;;;;5049293;28;20237;-57
2023/07/24 07:24:59;;;;;;;6.25;3.75;;;22.20;99.90;;;;;;5050430;28;20261;-58
2023/07/24 07:27:27;;;;;;;3.65;3.35;;;22.30;99.90;;;;;;5042007;28;20202;-57
2023/07/24 07:29:56;;;;;;;6.38;3.53;;;22.30;99.90;;;;;;5044448;28;20670;-58
2023/07/24 07:32:24;;;;;;;4.10;3.67;;;22.30;99.90;;;;;;5050372;28;20306;-58
2023/07/24 07:34:52;;;;;;;4.05;3.67;;;22.30;99.90;;;;;;5051870;28;20251;-57
2023/07/24 07:37:20;;;;;;;6.47;3.65;;;22.40;99.90;;;;;;5052022;28;20287;-58
2023/07/24 07:39:48;;;;;;;6.50;4.25;;;22.40;99.90;;;;;;5045533;28;20206;-57
2023/07/24 07:42:16;;;;;;;6.88;4.25;;;22.40;99.90;;;;;;5047498;28;20237;-58
2023/07/24 07:44:46;;;;;;;8.18;3.75;;;22.40;99.90;;;;;;5046913;28;20236;-57
2023/07/24 07:47:15;;;;;;;7.38;4.07;;;22.40;99.90;;;;;;5050891;28;20284;-56
2023/07/24 07:49:43;;;;;;;3.95;3.55;;;22.50;99.90;;;;;;5050356;28;20288;-56
2023/07/24 07:52:12;;;;;;;4.20;3.45;;;22.50;99.90;;;;;;5051441;28;20233;-56
2023/07/24 07:54:40;;;;;;;3.90;3.53;;;22.50;99.90;;;;;;5051285;28;20209;-57
2023/07/24 07:57:08;;;;;;;4.15;3.75;;;22.60;99.90;;;;;;5051650;28;20276;-55
2023/07/24 07:59:36;;;;;;;9.00;4.07;;;22.60;99.90;;;;;;5050808;28;20240;-56
2023/07/24 08:02:04;;;;;;;4.13;3.78;;;22.60;99.90;;;;;;5047808;28;20208;-54
2023/07/24 08:04:34;;;;;;;6.72;4.10;;;22.60;99.90;;;;;;5048393;28;20325;-55
2023/07/24 08:07:01;;;;;;;6.22;3.70;;;22.50;99.90;;;;;;5050585;28;20284;-56
2023/07/24 08:09:29;;;;;;;6.28;3.75;;;22.60;99.90;;;;;;5050164;28;20729;-54
2023/07/24 08:11:57;;;;;;;4.43;3.72;;;22.60;99.90;;;;;;5051334;28;20233;-56
2023/07/24 08:14:25;;;;;;;3.97;3.67;;;22.70;99.90;;;;;;5051395;28;20233;-56
2023/07/24 08:16:53;;;;;;;5.03;3.78;;;22.70;99.90;;;;;;5040256;28;20209;-56
2023/07/24 08:19:21;;;;;;;4.97;3.70;;;22.90;99.90;;;;;;5047771;28;20233;-56
2023/07/24 08:21:50;;;;;;;6.35;3.15;;;23.00;99.90;;;;;;5048650;28;20280;-57
2023/07/24 08:24:18;;;;;;;5.72;3.67;;;23.10;99.90;;;;;;5050995;28;20301;-56
2023/07/24 08:26:46;;;;;;;6.72;3.50;;;23.20;99.90;;;;;;5050687;28;20724;-56
2023/07/24 08:29:14;;;;;;;6.22;3.30;;;23.30;99.90;;;;;;5044847;28;20248;-57
2023/07/24 08:31:42;;;;;;;4.72;3.47;;;23.30;99.90;;;;;;5048652;28;20288;-57
2023/07/24 08:34:10;;;;;;;4.55;3.15;;;23.40;99.90;;;;;;5049260;28;20255;-57
2023/07/24 08:36:38;;;;;;;7.47;3.78;;;23.30;99.90;;;;;;5048776;28;20225;-55
2023/07/24 08:39:07;;;;;;;4.05;3.50;;;23.30;99.90;;;;;;5051168;28;20228;-53
2023/07/24 08:41:37;;;;;;;4.22;3.78;;;23.30;99.90;;;;;;5047861;28;20284;-54
2023/07/24 08:44:05;;;;;;;7.25;4.05;;;23.40;99.90;;;;;;5041221;28;20649;-54
2023/07/24 08:46:36;;;;;;;4.13;2.80;;;23.40;99.90;;;;;;5055944;28;20304;-52
2023/07/24 08:49:04;;;;;;;6.38;3.42;;;23.50;99.90;;;;;;5048747;28;20671;-55
2023/07/24 08:51:32;;;;;;;4.05;3.65;;;23.60;99.90;;;;;;5057705;28;20201;-54
2023/07/24 08:54:00;;;;;;;4.78;3.60;;;23.70;99.90;;;;;;5056774;28;20301;-53
2023/07/24 08:56:29;;;;;;;6.47;3.90;;;23.80;99.90;;;;;;5055119;28;20775;-58
2023/07/24 08:58:58;;;;;;;4.15;3.83;;;23.90;99.90;;;;;;5053548;28;20200;-52
2023/07/24 09:01:26;;;;;;;4.93;3.83;;;24.00;99.90;;;;;;5054970;28;20832;-52
2023/07/24 09:03:53;;;;;;;6.57;4.32;;;24.10;99.90;;;;;;5045344;28;20317;-52
2023/07/24 09:06:22;;;;;;;6.03;4.10;;;24.20;99.90;;;;;;5051775;28;20726;-58
2023/07/24 09:08:53;;;;;;;8.60;4.38;;;24.20;99.90;;;;;;5055241;28;20197;-52
2023/07/24 09:11:21;;;;;;;6.45;4.63;;;24.20;99.90;;;;;;5055483;28;20201;-53
2023/07/24 09:13:51;;;;;;;10.02;4.70;;;24.20;99.90;;;;;;5056457;28;20288;-52
2023/07/24 09:16:23;;;;;;;8.27;4.68;;;24.10;99.90;;;;;;5056087;28;20236;-51
2023/07/24 09:18:52;;;;;;;6.55;4.03;;;24.10;99.90;;;;;;5056512;28;20216;-54
2023/07/24 09:21:28;;;;;;;5.72;4.13;;;24.00;99.90;;;;;;5057183;28;20351;-51
2023/07/24 09:23:57;;;;;;;7.25;4.32;;;24.00;99.90;;;;;;5054888;28;20288;-52
2023/07/24 09:26:25;;;;;;;8.57;4.30;;;23.90;99.90;;;;;;5056682;28;20237;-55
2023/07/24 09:28:55;;;;;;;5.10;4.47;;;23.90;99.90;;;;;;5055467;28;20284;-52
2023/07/24 09:31:23;;;;;;;6.38;5.05;;;23.90;99.90;;;;;;5055854;28;20640;-52
2023/07/24 09:33:51;;;;;;;8.95;5.30;;;23.80;99.90;;;;;;5055576;28;20209;-54
2023/07/24 09:36:18;;;;;;;5.43;4.53;;;23.80;99.90;;;;;;5054355;28;20225;-52
2023/07/24 09:38:46;;;;;;;10.10;4.75;;;23.90;99.90;;;;;;5053408;28;20240;-52
2023/07/24 09:41:16;;;;;;;5.00;4.50;;;24.00;99.90;;;;;;5044812;28;20210;-52
2023/07/24 09:43:43;;;;;;;11.13;5.10;;;24.10;99.90;;;;;;5056073;28;20282;-54
2023/07/24 09:46:13;;;;;;;6.47;4.78;;;24.20;99.90;;;;;;5056451;28;20225;-56
2023/07/24 09:48:41;;;;;;;12.05;5.32;;;24.30;99.90;;;;;;5056718;28;20205;-51
2023/07/24 09:51:32;;;;;;;11.88;5.40;;;24.60;99.90;;;;;;5056971;28;20201;-51
2023/07/24 09:54:05;;;;;;;6.28;4.68;;;25.00;99.90;;;;;;5057034;28;20213;-55
2023/07/24 09:56:33;;;;;;;8.85;5.13;;;25.30;99.90;;;;;;5053858;28;20301;-53
2023/07/24 09:59:16;;;;;;;9.15;5.22;;;25.30;99.90;;;;;;5050938;28;20229;-54
2023/07/24 10:01:46;;;;;;;8.30;5.20;;;25.20;99.90;;;;;;5053791;28;20209;-52
2023/07/24 10:04:14;;;;;;;7.97;5.18;;;25.10;99.90;;;;;;5052400;28;20209;-52
2023/07/24 10:06:42;;;;;;;6.35;5.05;;;25.00;99.90;;;;;;5051952;28;20229;-51
2023/07/24 10:09:10;;;;;;;8.18;4.95;;;24.80;99.90;;;;;;5054056;28;20677;-56
2023/07/24 10:11:38;;;;;;;6.75;5.07;;;24.70;99.90;;;;;;5053723;28;20201;-55
2023/07/24 10:14:06;;;;;;;4.72;4.32;;;24.70;99.90;;;;;;5052249;28;20240;-52
2023/07/24 10:16:34;;;;;;;5.47;3.97;;;24.60;99.90;;;;;;5051077;28;20249;-52
2023/07/24 10:19:13;;;;;;;4.75;3.58;;;24.60;99.90;;;;;;5050390;28;20206;-52
2023/07/24 10:21:45;;;;;;;4.75;3.22;;;24.60;99.90;;;;;;5050663;28;20223;-52
2023/07/24 10:24:13;;;;;;;5.10;3.30;;;24.70;99.90;;;;;;5052431;28;20611;-52
2023/07/24 10:26:56;;;;;;;3.85;3.47;;;24.70;99.90;;;;;;5047413;28;20221;-52
2023/07/24 10:29:24;;;;;;;4.20;3.85;;;24.80;99.90;;;;;;5053403;28;20201;-53
2023/07/24 10:31:55;;;;;;;3.53;3.28;;;24.90;99.90;;;;;;5045967;28;20296;-52
2023/07/24 10:34:25;;;;;;;4.80;3.42;;;25.00;99.90;;;;;;5044413;28;20237;-55
2023/07/24 10:37:02;;;;;;;3.60;3.13;;;25.10;99.90;;;;;;5052105;28;20304;-52
2023/07/24 10:39:38;;;;;;;3.42;3.13;;;25.20;99.90;;;;;;5053501;28;20288;-52
2023/07/24 10:42:08;;;;;;;5.22;3.83;;;25.30;99.90;;;;;;5053180;28;20201;-52
2023/07/24 10:44:36;;;;;;;4.88;3.60;;;25.30;99.90;;;;;;5051316;28;20244;-55
2023/07/24 10:47:04;;;;;;;5.75;3.90;;;25.40;99.90;;;;;;5051549;28;20574;-54
2023/07/24 10:49:34;;;;;;;6.18;3.78;;;25.50;99.90;;;;;;5038599;28;20292;-52
2023/07/24 10:52:02;;;;;;;6.38;4.50;;;25.70;99.90;;;;;;5049336;28;20201;-52
2023/07/24 10:54:30;;;;;;;7.32;4.15;;;25.80;99.90;;;;;;5051207;28;20251;-52
2023/07/24 10:57:01;;;;;;;6.30;3.97;;;25.90;99.90;;;;;;5051537;28;20193;-52
2023/07/24 10:59:39;;;;;;;6.40;4.43;;;26.00;99.90;;;;;;5053074;28;20301;-52
2023/07/24 11:02:07;;;;;;;5.40;4.25;;;26.00;99.90;;;;;;5052508;28;20325;-51
2023/07/24 11:04:37;;;;;;;7.75;4.22;;;25.90;99.90;;;;;;5050312;28;20756;-56
2023/07/24 11:07:04;;;;;;;4.45;4.03;;;25.90;99.90;;;;;;5051597;28;20234;-52
2023/07/24 11:09:36;;;;;;;6.82;4.35;;;25.90;99.90;;;;;;5051751;28;20244;-52
2023/07/24 11:12:14;;;;;;;5.68;4.20;;;25.90;99.90;;;;;;5049891;28;20297;-54
2023/07/24 11:14:49;;;;;;;9.32;4.05;;;25.80;99.90;;;;;;5049803;28;20232;-56
2023/07/24 11:17:17;;;;;;;5.05;3.85;;;25.90;99.90;;;;;;5050766;28;20209;-52
2023/07/24 11:19:46;;;;;;;5.47;3.95;;;25.80;99.90;;;;;;5052551;28;20197;-52
2023/07/24 11:22:15;;;;;;;8.98;3.95;;;25.80;99.90;;;;;;5051923;28;20233;-57
2023/07/24 11:24:46;;;;;;;4.47;3.88;;;25.80;99.90;;;;;;5051797;28;20676;-54
2023/07/24 11:27:15;;;;;;;7.40;3.83;;;25.80;99.90;;;;;;5052430;28;20225;-55
2023/07/24 11:29:47;;;;;;;4.93;4.18;;;25.80;99.90;;;;;;5052602;28;20575;-52
2023/07/24 11:32:18;;;;;;;7.15;3.88;;;25.80;99.90;;;;;;5052205;28;20634;-52
2023/07/24 11:34:48;;;;;;;5.70;4.28;;;25.80;99.90;;;;;;5051926;28;20290;-52
2023/07/24 11:37:16;;;;;;;5.35;3.97;;;25.80;99.90;;;;;;5050738;28;20233;-51
2023/07/24 11:39:44;;;;;;;4.72;3.63;;;25.80;99.90;;;;;;5052049;28;21006;-52
2023/07/24 11:42:12;;;;;;;4.35;3.95;;;25.90;99.90;;;;;;5052181;28;20648;-52
2023/07/24 11:44:40;;;;;;;4.53;3.95;;;26.00;99.90;;;;;;5051960;28;20209;-52
2023/07/24 11:47:08;;;;;;;4.70;3.67;;;26.00;99.90;;;;;;5051745;28;20225;-52
2023/07/24 11:49:36;;;;;;;6.80;4.18;;;25.90;99.90;;;;;;5052031;28;20236;-52
2023/07/24 11:52:07;;;;;;;5.40;4.20;;;25.80;99.90;;;;;;5051233;28;20209;-52
2023/07/24 11:54:35;;;;;;;5.07;3.95;;;25.70;99.90;;;;;;5051570;28;20197;-52
2023/07/24 11:57:03;;;;;;;4.30;4.00;;;25.80;99.90;;;;;;5051469;28;20194;-52
2023/07/24 11:59:37;;;;;;;7.13;4.00;;;25.80;99.90;;;;;;5051946;28;20266;-52
2023/07/24 12:02:05;;;;;;;4.85;3.95;;;25.90;99.90;;;;;;5051569;28;20643;-52
2023/07/24 12:04:33;;;;;;;4.65;3.58;;;26.00;99.90;;;;;;5051361;28;20201;-55
2023/07/24 12:07:01;;;;;;;4.18;3.88;;;26.00;99.90;;;;;;5051414;28;20221;-51
2023/07/24 12:09:32;;;;;;;5.10;4.07;;;25.90;99.90;;;;;;5051597;28;20566;-52
2023/07/24 12:12:00;;;;;;;4.50;3.83;;;26.10;99.90;;;;;;5051491;28;20205;-52
2023/07/24 12:14:28;;;;;;;6.72;4.00;;;26.10;99.90;;;;;;5051595;28;20271;-52
2023/07/24 12:17:01;;;;;;;4.78;4.38;;;26.10;99.90;;;;;;5034793;28;20221;-54
2023/07/24 12:19:29;;;;;;;4.32;3.92;;;26.20;99.90;;;;;;5050806;28;20232;-52
2023/07/24 12:21:57;;;;;;;5.88;3.95;;;26.30;99.90;;;;;;5051308;28;20236;-53
2023/07/24 12:24:25;;;;;;;6.63;4.57;;;26.20;99.90;;;;;;5051404;28;20281;-52
2023/07/24 12:26:54;;;;;;;11.65;4.47;;;26.10;99.90;;;;;;5034652;28;20263;-53
2023/07/24 12:29:22;;;;;;;4.50;3.95;;;26.00;99.90;;;;;;5051367;28;20222;-52
2023/07/24 12:31:50;;;;;;;4.43;3.92;;;26.00;99.90;;;;;;5051310;28;20232;-52
2023/07/24 12:34:18;;;;;;;3.97;3.58;;;26.20;99.90;;;;;;5051269;28;20635;-53
2023/07/24 12:36:47;;;;;;;4.13;3.72;;;26.50;99.90;;;;;;5050634;28;20593;-53
2023/07/24 12:39:15;;;;;;;4.00;3.28;;;27.00;99.90;;;;;;5051352;28;20216;-56
2023/07/24 12:41:43;;;;;;;5.13;3.90;;;27.70;99.90;;;;;;5050992;28;20232;-55
2023/07/24 12:44:12;;;;;;;5.32;4.53;;;28.20;99.90;;;;;;5051011;28;20197;-57
2023/07/24 12:46:40;;;;;;;4.30;3.97;;;28.10;99.90;;;;;;5050681;28;20256;-53
2023/07/24 12:49:08;;;;;;;5.32;3.90;;;27.70;99.90;;;;;;5051036;28;20211;-52
2023/07/24 12:51:36;;;;;;;4.68;3.42;;;27.20;99.90;;;;;;5051212;28;20224;-53
2023/07/24 12:54:04;;;;;;;4.43;3.95;;;26.80;99.90;;;;;;5049637;28;21516;-54